Airport View

Enter AWOS ICAO identifier for current METAR.

ex. KFNL

KI67 210805Z AUTO 00000KT 7SM CLR 13/12 A3009 RMK AO1 P0001

21 Oct 2020 08:07

Frequency: 118.15

Phone: 513-569-4964

Other Area AWOS: KHAO - KCVG - KOXD - KLUK

TAF KCVG 210540Z 2106/2212 20008KT P6SM BKN070 FM211300 21006KT P6SM BKN035 FM211600 24010KT P6SM BKN015 OVC025 FM211900 28004KT P6SM OVC018 FM212200 VRB03KT P6SM SCT018 OVC025 FM220100 06003KT P6SM SCT025 SCT060